Time;durP1;ratioP1;P1;durP2;ratioP2;P2;SDS_P1;SDS_P2;PMS_P1;PMS_P2;Temp;Humidity;BMP_temperature;BMP_pressure;BME280_temperature;BME280_humidity;BME280_pressure;Samples;Min_cycle;Max_cycle;Signal;HPM_P1;HPM_P2
2021/11/09 00:02:49;;;;;;;10.25;3.13;;;;;;;;;;10333591;28;20033;-79
2021/11/09 00:07:56;;;;;;;11.18;3.40;;;;;;;;;;10349041;28;20457;-79
2021/11/09 00:13:00;;;;;;;8.75;2.45;;;;;;;;;;10333468;28;20053;-79
2021/11/09 00:18:02;;;;;;;17.13;2.88;;;;;;;;;;10332798;28;20035;-79
2021/11/09 00:23:04;;;;;;;14.25;2.78;;;;;;;;;;10347238;28;20420;-78
2021/11/09 00:28:05;;;;;;;7.15;2.70;;;;;;;;;;10317134;23;20059;-96
2021/11/09 00:33:06;;;;;;;8.40;2.90;;;;;;;;;;10273490;28;20042;-96
2021/11/09 00:38:10;;;;;;;12.77;2.33;;;;;;;;;;10267083;28;20022;-96
2021/11/09 00:43:12;;;;;;;10.02;2.75;;;;;;;;;;10265324;28;20026;-94
2021/11/09 00:48:12;;;;;;;6.18;2.50;;;;;;;;;;10258764;28;20039;-95
2021/11/09 00:53:17;;;;;;;8.25;2.22;;;;;;;;;;10260049;28;20038;-96
2021/11/09 00:58:18;;;;;;;12.25;2.47;;;;;;;;;;10263677;28;20030;-96
2021/11/09 01:03:18;;;;;;;8.48;2.80;;;;;;;;;;10260442;28;20384;-96
2021/11/09 01:08:19;;;;;;;10.07;2.70;;;;;;;;;;10259376;28;20078;-96
2021/11/09 01:13:22;;;;;;;7.28;2.25;;;;;;;;;;10271428;28;20043;-95
2021/11/09 01:18:37;;;;;;;11.10;2.20;;;;;;;;;;10271608;28;20067;-96
2021/11/09 01:23:37;;;;;;;5.15;2.08;;;;;;;;;;10252141;28;20035;-95
2021/11/09 01:28:38;;;;;;;7.75;2.30;;;;;;;;;;10271602;28;20047;-94
2021/11/09 01:33:40;;;;;;;5.85;2.50;;;;;;;;;;10285934;28;20126;-94
2021/11/09 01:38:40;;;;;;;7.20;2.80;;;;;;;;;;10258410;28;20094;-96
2021/11/09 01:43:42;;;;;;;10.23;2.50;;;;;;;;;;10260233;28;20347;-96
2021/11/09 01:48:43;;;;;;;5.25;2.20;;;;;;;;;;10259363;28;20453;-96
2021/11/09 01:53:46;;;;;;;4.90;2.42;;;;;;;;;;10266990;28;20031;-96
2021/11/09 01:58:46;;;;;;;6.78;2.00;;;;;;;;;;10282258;28;20047;-96
2021/11/09 02:03:50;;;;;;;7.33;2.73;;;;;;;;;;10265618;28;20037;-94
2021/11/09 02:08:53;;;;;;;5.95;2.30;;;;;;;;;;10258910;28;20453;-93
2021/11/09 02:13:53;;;;;;;6.68;2.13;;;;;;;;;;10256017;28;20122;-95
2021/11/09 02:18:54;;;;;;;6.82;2.42;;;;;;;;;;10255075;28;20122;-94
2021/11/09 02:23:55;;;;;;;5.83;2.37;;;;;;;;;;10255637;28;20082;-94
2021/11/09 02:28:57;;;;;;;6.45;2.38;;;;;;;;;;10253735;28;20470;-96
2021/11/09 02:33:58;;;;;;;4.00;2.20;;;;;;;;;;10255037;28;20035;-95
2021/11/09 02:38:59;;;;;;;5.90;1.95;;;;;;;;;;10255353;28;20046;-95
2021/11/09 02:44:01;;;;;;;7.20;1.90;;;;;;;;;;10262254;28;20381;-95
2021/11/09 02:54:41;;;;;;;3.30;2.17;;;;;;;;;;10257283;28;20473;-92
2021/11/09 02:59:52;;;;;;;6.15;1.70;;;;;;;;;;10254506;28;20039;-95
2021/11/09 03:10:23;;;;;;;4.03;1.92;;;;;;;;;;10255500;28;20031;-96
2021/11/09 03:15:29;;;;;;;3.95;2.05;;;;;;;;;;10263931;28;20035;-96
2021/11/09 03:46:57;;;;;;;6.82;2.10;;;;;;;;;;10253213;28;20055;-95
2021/11/09 03:51:59;;;;;;;4.43;2.08;;;;;;;;;;10254132;28;20122;-94
2021/11/09 03:57:10;;;;;;;3.95;2.28;;;;;;;;;;10253233;28;20035;-93
2021/11/09 05:09:36;;;;;;;1.60;1.50;;;;;;;;;;10263210;28;20385;-95
2021/11/09 05:14:37;;;;;;;1.88;1.42;;;;;;;;;;10269979;28;20487;-94
2021/11/09 05:19:38;;;;;;;3.42;1.67;;;;;;;;;;10269698;28;20031;-93
2021/11/09 05:24:42;;;;;;;1.88;1.33;;;;;;;;;;10257687;28;20389;-92
2021/11/09 05:29:44;;;;;;;2.38;1.40;;;;;;;;;;10259984;28;20067;-91
2021/11/09 05:34:45;;;;;;;2.10;1.52;;;;;;;;;;10261665;28;20118;-95
2021/11/09 05:39:56;;;;;;;16.02;2.05;;;;;;;;;;10244425;28;20110;-95
2021/11/09 05:44:57;;;;;;;2.13;1.50;;;;;;;;;;10257869;28;20035;-95
2021/11/09 05:49:58;;;;;;;2.00;1.58;;;;;;;;;;10256662;28;20061;-95
2021/11/09 05:54:58;;;;;;;2.15;1.30;;;;;;;;;;10241870;28;20126;-93
2021/11/09 05:59:58;;;;;;;2.30;1.40;;;;;;;;;;10257549;28;20062;-96
2021/11/09 06:04:59;;;;;;;2.63;1.58;;;;;;;;;;10234210;28;20580;-92
2021/11/09 06:09:59;;;;;;;1.63;1.35;;;;;;;;;;10257644;28;20175;-95
2021/11/09 06:15:00;;;;;;;1.60;1.50;;;;;;;;;;10239233;28;20050;-91
2021/11/09 06:20:00;;;;;;;1.88;1.60;;;;;;;;;;10256356;28;20039;-93
2021/11/09 06:25:02;;;;;;;3.28;1.70;;;;;;;;;;10278291;28;20035;-91
2021/11/09 06:30:04;;;;;;;1.88;1.45;;;;;;;;;;10259038;28;20051;-84
2021/11/09 06:35:05;;;;;;;5.45;1.55;;;;;;;;;;10258752;28;20031;-83
2021/11/09 06:40:08;;;;;;;11.52;1.73;;;;;;;;;;10255478;28;20031;-83
2021/11/09 06:45:08;;;;;;;14.10;1.80;;;;;;;;;;10254932;28;20443;-84
2021/11/09 06:50:09;;;;;;;7.57;1.90;;;;;;;;;;10253907;28;20066;-84
2021/11/09 06:55:10;;;;;;;3.08;1.80;;;;;;;;;;10253519;28;20442;-84
2021/11/09 07:00:13;;;;;;;7.55;1.90;;;;;;;;;;10259705;28;20531;-84
2021/11/09 07:05:14;;;;;;;5.18;1.83;;;;;;;;;;10253420;28;20449;-84
2021/11/09 07:10:15;;;;;;;2.95;2.00;;;;;;;;;;10253402;28;20079;-85
2021/11/09 07:15:17;;;;;;;16.10;2.92;;;;;;;;;;10246081;28;20034;-83
2021/11/09 07:20:20;;;;;;;10.60;2.45;;;;;;;;;;10251547;28;20474;-85
2021/11/09 07:25:20;;;;;;;18.40;2.38;;;;;;;;;;10251709;28;20428;-85
2021/11/09 07:30:23;;;;;;;9.53;2.50;;;;;;;;;;10252692;28;20113;-86
2021/11/09 07:35:23;;;;;;;8.65;2.60;;;;;;;;;;10252423;28;20445;-85
2021/11/09 07:40:23;;;;;;;7.25;2.25;;;;;;;;;;10251410;28;20508;-84
2021/11/09 07:45:24;;;;;;;6.87;2.20;;;;;;;;;;10252924;28;20031;-85
2021/11/09 07:50:25;;;;;;;3.92;2.55;;;;;;;;;;10253114;28;20802;-85
2021/11/09 07:55:27;;;;;;;6.40;2.33;;;;;;;;;;10250985;28;20449;-85
2021/11/09 08:00:40;;;;;;;5.57;1.80;;;;;;;;;;10264773;28;20031;-84
2021/11/09 08:05:57;;;;;;;5.90;2.00;;;;;;;;;;10252226;28;20043;-85
2021/11/09 08:10:57;;;;;;;3.67;1.95;;;;;;;;;;10252046;28;20046;-85
2021/11/09 08:15:58;;;;;;;6.60;1.90;;;;;;;;;;10269339;28;20350;-84
2021/11/09 08:20:59;;;;;;;5.10;2.10;;;;;;;;;;10264938;28;20023;-85
2021/11/09 08:25:59;;;;;;;15.18;2.97;;;;;;;;;;10262321;28;20066;-83
2021/11/09 08:31:06;;;;;;;6.03;2.50;;;;;;;;;;10261107;28;20057;-85
2021/11/09 08:36:09;;;;;;;5.07;2.25;;;;;;;;;;10262066;28;20174;-84
2021/11/09 08:41:12;;;;;;;4.43;2.10;;;;;;;;;;10251715;28;20104;-85
2021/11/09 08:46:17;;;;;;;5.85;2.10;;;;;;;;;;10256462;28;20023;-84
2021/11/09 08:51:20;;;;;;;6.03;2.17;;;;;;;;;;10268629;28;20054;-84
2021/11/09 08:56:50;;;;;;;2.85;2.13;;;;;;;;;;10266618;28;20039;-84
2021/11/09 09:06:58;;;;;;;4.72;2.03;;;;;;;;;;10262311;28;20039;-85
2021/11/09 09:12:00;;;;;;;7.53;2.10;;;;;;;;;;10257992;28;20031;-85
2021/11/09 09:17:02;;;;;;;4.18;2.13;;;;;;;;;;10257522;28;20097;-85
2021/11/09 09:22:09;;;;;;;5.90;2.05;;;;;;;;;;10258572;28;20034;-85
2021/11/09 09:58:31;;;;;;;4.10;1.67;;;;;;;;;;10253228;28;20249;-85
2021/11/09 10:03:40;;;;;;;2.88;1.58;;;;;;;;;;10258440;28;20023;-85
2021/11/09 10:08:50;;;;;;;4.68;2.00;;;;;;;;;;10273193;28;20039;-85
2021/11/09 10:13:51;;;;;;;3.08;1.77;;;;;;;;;;10259298;28;20506;-86
2021/11/09 10:18:51;;;;;;;1.95;1.75;;;;;;;;;;10272643;28;20180;-87
2021/11/09 10:23:52;;;;;;;2.78;1.70;;;;;;;;;;10257890;28;20027;-87
2021/11/09 10:28:53;;;;;;;2.70;2.17;;;;;;;;;;10273271;28;20050;-86
2021/11/09 10:33:53;;;;;;;2.08;1.80;;;;;;;;;;10264990;28;20030;-87
2021/11/09 10:39:13;;;;;;;3.72;2.28;;;;;;;;;;10256027;28;20027;-87
2021/11/09 10:44:14;;;;;;;2.25;2.00;;;;;;;;;;10246913;28;20035;-86
2021/11/09 10:49:14;;;;;;;2.60;1.70;;;;;;;;;;10265190;28;20031;-86
2021/11/09 10:54:41;;;;;;;2.53;1.60;;;;;;;;;;10254376;28;20035;-87
2021/11/09 11:00:19;;;;;;;4.72;1.75;;;;;;;;;;10255224;28;20456;-86
2021/11/09 11:05:21;;;;;;;2.97;1.65;;;;;;;;;;10259154;28;20045;-86
2021/11/09 11:10:34;;;;;;;2.60;1.73;;;;;;;;;;10259894;28;20445;-86
2021/11/09 11:15:35;;;;;;;2.53;1.73;;;;;;;;;;10268516;28;20033;-87
2021/11/09 11:20:35;;;;;;;4.00;2.00;;;;;;;;;;10282095;28;20553;-86
2021/11/09 11:25:36;;;;;;;3.47;1.90;;;;;;;;;;10266586;28;20035;-87
2021/11/09 11:30:36;;;;;;;2.60;1.70;;;;;;;;;;10267536;28;20477;-88
2021/11/09 11:35:37;;;;;;;3.60;1.80;;;;;;;;;;10254223;28;20027;-87
2021/11/09 11:40:37;;;;;;;3.17;1.73;;;;;;;;;;10252437;28;20457;-88
2021/11/09 11:45:45;;;;;;;4.00;1.80;;;;;;;;;;10251730;28;20444;-88
2021/11/09 11:50:46;;;;;;;2.97;1.60;;;;;;;;;;10265666;28;20090;-89
2021/11/09 11:55:49;;;;;;;1.95;1.67;;;;;;;;;;10260960;28;20023;-88
2021/11/09 12:00:56;;;;;;;3.08;1.98;;;;;;;;;;10251551;28;20042;-88
2021/11/09 12:05:58;;;;;;;2.00;1.63;;;;;;;;;;10252850;28;20082;-88
2021/11/09 12:10:59;;;;;;;2.40;2.05;;;;;;;;;;10252347;28;20031;-89
2021/11/09 12:16:01;;;;;;;4.82;1.48;;;;;;;;;;10251946;28;20428;-88
2021/11/09 12:21:18;;;;;;;3.33;1.85;;;;;;;;;;10256742;28;20039;-87
2021/11/09 12:26:50;;;;;;;3.00;1.95;;;;;;;;;;10286297;23;20137;-89
2021/11/09 12:31:50;;;;;;;3.40;1.73;;;;;;;;;;10233409;28;20110;-90
2021/11/09 12:37:20;;;;;;;2.37;1.50;;;;;;;;;;10256105;28;20106;-89
2021/11/09 12:42:21;;;;;;;1.67;1.40;;;;;;;;;;10248493;28;20464;-84
2021/11/09 12:47:21;;;;;;;3.15;1.50;;;;;;;;;;10240882;28;20027;-88
2021/11/09 12:52:21;;;;;;;1.73;1.30;;;;;;;;;;10275118;28;20129;-88
2021/11/09 12:57:22;;;;;;;3.00;1.50;;;;;;;;;;10245841;28;20449;-88
2021/11/09 13:02:28;;;;;;;1.75;1.52;;;;;;;;;;10257646;28;20397;-87
2021/11/09 13:12:33;;;;;;;3.33;1.77;;;;;;;;;;10239369;28;20381;-87
2021/11/09 13:17:37;;;;;;;2.25;1.65;;;;;;;;;;10269749;28;20019;-88
2021/11/09 13:22:48;;;;;;;2.67;1.75;;;;;;;;;;10269417;28;20027;-88
2021/11/09 13:27:49;;;;;;;1.70;1.42;;;;;;;;;;10245683;28;20051;-89
2021/11/09 13:32:56;;;;;;;3.77;2.10;;;;;;;;;;10260139;28;21156;-89
2021/11/09 13:38:16;;;;;;;7.28;2.65;;;;;;;;;;10249185;28;20788;-88
2021/11/09 13:43:28;;;;;;;4.80;2.00;;;;;;;;;;10255589;28;20086;-87
2021/11/09 13:48:30;;;;;;;2.15;1.73;;;;;;;;;;10265998;28;20039;-88
2021/11/09 13:53:36;;;;;;;4.82;2.10;;;;;;;;;;10260501;28;20174;-80
2021/11/09 13:58:36;;;;;;;4.03;1.70;;;;;;;;;;10251953;28;20031;-79
2021/11/09 14:04:03;;;;;;;5.95;1.50;;;;;;;;;;10240609;28;20393;-81
2021/11/09 14:09:39;;;;;;;4.68;1.60;;;;;;;;;;10238381;28;20024;-84
2021/11/09 14:19:42;;;;;;;9.55;2.42;;;;;;;;;;10263303;28;20119;-84
2021/11/09 14:24:59;;;;;;;7.90;1.88;;;;;;;;;;10244956;28;20461;-86
2021/11/09 14:30:00;;;;;;;4.65;1.55;;;;;;;;;;10251296;28;20513;-92
2021/11/09 14:35:08;;;;;;;7.50;2.17;;;;;;;;;;10241033;28;20031;-85
2021/11/09 14:40:13;;;;;;;4.45;2.00;;;;;;;;;;10232117;28;20085;-90
2021/11/09 14:45:34;;;;;;;4.85;2.15;;;;;;;;;;10247597;28;20059;-94
2021/11/09 14:51:00;;;;;;;2.70;2.10;;;;;;;;;;10252478;28;20046;-87
2021/11/09 14:56:11;;;;;;;4.25;2.17;;;;;;;;;;10253500;28;20177;-93
2021/11/09 15:07:11;;;;;;;4.55;1.73;;;;;;;;;;10239932;28;20404;-94
2021/11/09 15:28:26;;;;;;;;;;;;;;;;;;10256209;28;20433;-92
2021/11/09 15:38:27;;;;;;;3.83;1.52;;;;;;;;;;10258881;28;20073;-93
2021/11/09 15:43:29;;;;;;;4.00;1.50;;;;;;;;;;10238853;28;20028;-91
2021/11/09 15:48:30;;;;;;;7.40;2.00;;;;;;;;;;10263882;28;20453;-92
2021/11/09 15:53:31;;;;;;;3.53;1.73;;;;;;;;;;10249171;28;20093;-92
2021/11/09 15:58:31;;;;;;;2.45;1.48;;;;;;;;;;10220152;28;20114;-91
2021/11/09 16:03:33;;;;;;;7.15;1.92;;;;;;;;;;10251971;28;20033;-91
2021/11/09 16:08:37;;;;;;;3.33;1.50;;;;;;;;;;10251326;28;20448;-93
2021/11/09 16:13:39;;;;;;;3.70;1.85;;;;;;;;;;10246375;28;20042;-92
2021/11/09 16:18:39;;;;;;;3.92;1.58;;;;;;;;;;10234100;28;20118;-93
2021/11/09 16:23:40;;;;;;;4.25;1.48;;;;;;;;;;10238420;28;20027;-94
2021/11/09 16:28:40;;;;;;;4.10;1.90;;;;;;;;;;10240469;28;20043;-93
2021/11/09 16:33:41;;;;;;;2.30;1.37;;;;;;;;;;10251133;28;20516;-92
2021/11/09 16:38:55;;;;;;;3.35;1.90;;;;;;;;;;10240351;28;20476;-92
2021/11/09 16:43:59;;;;;;;4.00;1.50;;;;;;;;;;10237868;28;20480;-91
2021/11/09 18:24:13;;;;;;;6.13;3.22;;;;;;;;;;10245924;28;20494;-93
2021/11/09 18:29:14;;;;;;;8.30;3.10;;;;;;;;;;10257647;28;20145;-90
2021/11/09 18:34:15;;;;;;;5.32;2.65;;;;;;;;;;10256444;28;20461;-91
2021/11/09 18:39:15;;;;;;;3.42;2.35;;;;;;;;;;10274298;28;20401;-92
2021/11/09 18:44:15;;;;;;;5.57;2.80;;;;;;;;;;10254804;28;20035;-91
2021/11/09 18:49:17;;;;;;;6.10;3.00;;;;;;;;;;10264854;28;20466;-93
2021/11/09 18:54:18;;;;;;;8.40;3.25;;;;;;;;;;10262091;28;20468;-92
2021/11/09 18:59:20;;;;;;;9.55;3.17;;;;;;;;;;10243369;28;20530;-91
2021/11/09 19:04:22;;;;;;;12.48;3.42;;;;;;;;;;10228967;28;20031;-91
2021/11/09 19:09:23;;;;;;;6.35;3.33;;;;;;;;;;10239598;28;20054;-90
2021/11/09 19:14:24;;;;;;;6.57;3.08;;;;;;;;;;10253337;28;20079;-89
2021/11/09 19:19:25;;;;;;;5.43;3.30;;;;;;;;;;10255256;28;20035;-89
2021/11/09 19:24:25;;;;;;;8.85;3.95;;;;;;;;;;10239602;28;20034;-90
2021/11/09 19:29:26;;;;;;;10.75;3.72;;;;;;;;;;10226533;28;20512;-90
2021/11/09 19:34:27;;;;;;;6.30;3.50;;;;;;;;;;10230653;28;20036;-90
2021/11/09 19:39:27;;;;;;;9.83;3.90;;;;;;;;;;10249718;28;20027;-90
2021/11/09 19:44:29;;;;;;;9.68;3.42;;;;;;;;;;10249870;28;20453;-91
2021/11/09 19:49:30;;;;;;;5.28;3.80;;;;;;;;;;10257038;28;20081;-90
2021/11/09 19:54:31;;;;;;;7.65;4.00;;;;;;;;;;10257846;28;20362;-90
2021/11/09 19:59:32;;;;;;;7.72;4.28;;;;;;;;;;10248876;28;20031;-90
2021/11/09 20:04:32;;;;;;;8.93;4.20;;;;;;;;;;10233737;28;20031;-88
2021/11/09 20:09:33;;;;;;;8.07;3.90;;;;;;;;;;10257467;28;20034;-90
2021/11/09 20:14:38;;;;;;;9.50;4.30;;;;;;;;;;10251130;28;20461;-92
2021/11/09 20:19:42;;;;;;;6.88;3.55;;;;;;;;;;10231215;28;20500;-91
2021/11/09 20:24:44;;;;;;;6.20;3.97;;;;;;;;;;10246780;28;20054;-91
2021/11/09 20:29:47;;;;;;;7.15;3.83;;;;;;;;;;10255525;28;20048;-90
2021/11/09 20:34:48;;;;;;;5.72;3.33;;;;;;;;;;10245216;28;20498;-89
2021/11/09 20:39:48;;;;;;;7.13;3.58;;;;;;;;;;10242327;28;20043;-89
2021/11/09 20:44:50;;;;;;;11.57;3.90;;;;;;;;;;10247305;28;20441;-88
2021/11/09 20:49:50;;;;;;;6.68;3.40;;;;;;;;;;10245106;28;20039;-88
2021/11/09 20:54:51;;;;;;;5.75;3.42;;;;;;;;;;10245210;28;20043;-89
2021/11/09 20:59:52;;;;;;;7.45;3.58;;;;;;;;;;10226835;28;20047;-89
2021/11/09 21:04:54;;;;;;;7.88;3.60;;;;;;;;;;10246387;28;20027;-89
2021/11/09 21:09:54;;;;;;;6.57;3.78;;;;;;;;;;10255228;28;20401;-89
2021/11/09 21:20:13;;;;;;;;;;;;;;;;;;10249220;28;20426;-89
2021/11/09 21:25:14;;;;;;;6.68;4.18;;;;;;;;;;10236414;28;19922;-88
2021/11/09 21:35:28;;;;;;;8.70;4.45;;;;;;;;;;10239464;28;20429;-88
2021/11/09 21:40:30;;;;;;;9.60;4.32;;;;;;;;;;10252778;28;20027;-90
2021/11/09 21:45:32;;;;;;;9.27;4.28;;;;;;;;;;10223473;28;20035;-89
2021/11/09 21:50:37;;;;;;;7.50;4.25;;;;;;;;;;10249100;28;20066;-88
2021/11/09 21:55:38;;;;;;;8.90;4.60;;;;;;;;;;10246024;28;20031;-90
2021/11/09 22:00:38;;;;;;;8.02;4.28;;;;;;;;;;10251280;28;20065;-90
2021/11/09 22:05:39;;;;;;;13.82;5.00;;;;;;;;;;10250840;28;20047;-87
2021/11/09 22:10:39;;;;;;;19.55;5.15;;;;;;;;;;10250607;28;20039;-87
2021/11/09 22:15:40;;;;;;;16.27;4.78;;;;;;;;;;10239238;28;20145;-86
2021/11/09 22:20:44;;;;;;;11.00;4.80;;;;;;;;;;10249083;28;20082;-87
2021/11/09 22:25:44;;;;;;;10.40;4.40;;;;;;;;;;10248389;28;20811;-83
2021/11/09 22:30:45;;;;;;;13.20;4.30;;;;;;;;;;10248703;28;20051;-82
2021/11/09 22:35:45;;;;;;;10.52;4.63;;;;;;;;;;10246825;28;20027;-81
2021/11/09 22:40:46;;;;;;;7.90;3.88;;;;;;;;;;10247799;28;20473;-81
2021/11/09 22:45:46;;;;;;;9.48;4.30;;;;;;;;;;10240664;28;20027;-81
2021/11/09 22:50:47;;;;;;;12.23;4.83;;;;;;;;;;10205601;28;20032;-82
2021/11/09 22:55:47;;;;;;;15.18;5.05;;;;;;;;;;10258317;28;20437;-81
2021/11/09 23:00:48;;;;;;;10.57;4.53;;;;;;;;;;10279434;28;20031;-81
2021/11/09 23:05:48;;;;;;;10.30;4.40;;;;;;;;;;10264773;28;20490;-81
2021/11/09 23:10:49;;;;;;;7.63;3.92;;;;;;;;;;10243821;28;20081;-81
2021/11/09 23:15:50;;;;;;;8.88;4.53;;;;;;;;;;10238270;28;20053;-81
2021/11/09 23:20:50;;;;;;;5.18;4.00;;;;;;;;;;10240282;28;20043;-81
2021/11/09 23:25:51;;;;;;;10.68;4.60;;;;;;;;;;10252166;28;20122;-82
2021/11/09 23:30:52;;;;;;;11.40;4.97;;;;;;;;;;10254305;28;20051;-84
2021/11/09 23:35:52;;;;;;;7.40;4.10;;;;;;;;;;10252424;28;20043;-85
2021/11/09 23:40:53;;;;;;;7.57;4.07;;;;;;;;;;10251125;28;20058;-86
2021/11/09 23:45:56;;;;;;;6.75;3.90;;;;;;;;;;10249895;28;20081;-81
2021/11/09 23:50:57;;;;;;;27.60;5.72;;;;;;;;;;10244156;28;20109;-81
2021/11/09 23:55:58;;;;;;;13.05;5.13;;;;;;;;;;10236765;28;20536;-80
